Test XHTML 1.0 Strict Page for WU-History Testing
Histórico de la Estación METEOCORUÑA
Diario Datos del Mayo 18, 2018 Unidades:  Metrico    Inglés   Ambos
« Prev Dia
Sig Dia »
Diario Semanal Mensual Anual Rango
  Max: Min: Media:
Temp: -17.8 °C -10.4 °C -9.6 °C
Rocío: -17.8 °C -58.5 °C -12 °C
Humedad: Humidity % 75 % 86 %
Vel. viento: 0 km/h 5.1 km/h 24.5 km/h
Racha: 0 km/h - -
Viento:- - South
Presión: 0 hPa -114650 hPa -
Lluvia: 0 mm    
Historical Graphs
 
 
Busqueda de Mayo 18, 2018
Hora Temp Rocío Presión Viento Vel. viento Racha Humedad Ratio lluvia (/hora) Radiación
-17.8 °C -17.8 °C 0 hPa Calm     Humidity % 0 mm SolarRadiationWatts/m^2 W/m2
00:04 -10.3 °C -11.4 °C 34462.7 hPa NNE 12.9 km/h 23.3 km/h 87 % 0 mm 0 W/m2
00:29 -10.4 °C -58.5 °C -114650 hPa NNW 20.8 km/h 33.6 km/h 86 % 0 mm 0 W/m2
00:34 -10.4 °C -58.5 °C -114650 hPa North 18.2 km/h 31.1 km/h 86 % 0 mm 0 W/m2
00:39 -10.4 °C -58.5 °C -114650 hPa North 25.9 km/h 36.2 km/h 86 % 0 mm 0 W/m2
00:52 -10.4 °C -11.7 °C 34476.3 hPa NNE 20.8 km/h 31.1 km/h 86 % 0 mm 0 W/m2
01:22 -10.4 °C -11.7 °C 34476.3 hPa NE 12.9 km/h 25.9 km/h 86 % 0 mm 0 W/m2
01:27 -10.4 °C -58.5 °C -114650 hPa NNE 15.6 km/h 23.3 km/h 86 % 0 mm 0 W/m2
01:32 -10.3 °C -11.6 °C 34476.3 hPa North 10.3 km/h 31.1 km/h 86 % 0 mm 0 W/m2
01:42 -10.3 °C -11.6 °C 34476.3 hPa North 12.9 km/h 23.3 km/h 86 % 0 mm 0 W/m2
01:47 -10.4 °C -11.7 °C 34476.3 hPa North 12.9 km/h 28.5 km/h 86 % 0 mm 0 W/m2
01:52 -10.4 °C -58.5 °C -114650 hPa NNW 7.7 km/h 28.5 km/h 87 % 0 mm 0 W/m2
02:02 -10.4 °C -11.6 °C 34476.3 hPa NNW 12.9 km/h 23.3 km/h 87 % 0 mm 0 W/m2
02:07 -10.4 °C -11.6 °C 34476.3 hPa NNW 10.3 km/h 25.9 km/h 87 % 0 mm 0 W/m2
02:22 -10.4 °C -11.6 °C 34476.3 hPa North 10.3 km/h 31.1 km/h 87 % 0 mm 0 W/m2
02:27 -10.4 °C -11.6 °C 34462.7 hPa North 15.6 km/h 25.9 km/h 87 % 0 mm 0 W/m2
02:37 -10.4 °C -11.5 °C 34476.3 hPa North 12.9 km/h 25.9 km/h 88 % 0 mm 0 W/m2
03:32 -10.4 °C -58.5 °C -114650 hPa North 15.6 km/h 25.9 km/h 89 % 0 mm 0 W/m2
03:37 -10.4 °C -11.4 °C 34462.7 hPa North 15.6 km/h 25.9 km/h 89 % 0 mm 0 W/m2
03:42 -10.4 °C -11.4 °C 34462.7 hPa NNE 15.6 km/h 25.9 km/h 89 % 0 mm 0 W/m2
03:47 -10.4 °C -11.4 °C 34452.6 hPa NNE 26.9 km/h 26.9 km/h 89 % 0 mm 0.0 W/m2
03:52 -10.4 °C -11.4 °C 34452.6 hPa NE 28.5 km/h 28.5 km/h 89 % 0 mm 0.0 W/m2
03:57 -10.4 °C -11.4 °C 34452.6 hPa NE 29.8 km/h 29.8 km/h 89 % 0 mm 0.0 W/m2
04:02 -10.4 °C -11.4 °C 34462.7 hPa NNE 15.6 km/h 25.9 km/h 89 % 0 mm 0 W/m2
04:07 -10.3 °C -11.3 °C 34452.6 hPa NNE 35.7 km/h 35.7 km/h 89 % 0 mm 0.0 W/m2
04:12 -10.3 °C -11.3 °C 34452.6 hPa NNE 25.9 km/h 25.9 km/h 89 % 0 mm 0.0 W/m2
04:17 -10.3 °C -11.3 °C 34452.6 hPa East 23.8 km/h 23.8 km/h 89 % 0 mm 0.0 W/m2
04:22 -10.3 °C -11.3 °C 34462.7 hPa NNE 12.9 km/h 25.9 km/h 89 % 0 mm 0 W/m2
04:27 -10.3 °C -11.3 °C 34452.6 hPa NNE 20.8 km/h 20.8 km/h 89 % 0 mm 0.0 W/m2
04:32 -10.3 °C -11.3 °C 34442.4 hPa ENE 20.9 km/h 20.9 km/h 89 % 0 mm 0.0 W/m2
04:37 -10.3 °C -11.3 °C 34452.6 hPa NE 20.9 km/h 20.9 km/h 89 % 0 mm 0.0 W/m2
04:42 -10.3 °C -11.3 °C 34462.7 hPa NE 10.3 km/h 15.6 km/h 89 % 0 mm 0 W/m2
04:47 -10.3 °C -11.3 °C 34462.7 hPa NE 7.7 km/h 23.3 km/h 89 % 0 mm 0 W/m2
04:52 -10.3 °C -11.3 °C 34442.4 hPa NE 9 km/h 9 km/h 89 % 0 mm 0.0 W/m2
04:57 -10.3 °C -11.3 °C 34462.7 hPa NE 7.7 km/h 7.7 km/h 89 % 0 mm 0 W/m2
05:02 -10.3 °C -11.3 °C 34442.4 hPa North 6 km/h 6 km/h 89 % 0 mm 0.0 W/m2
05:07 -10.3 °C -11.3 °C 34452.6 hPa NE 7.7 km/h 7.7 km/h 89 % 0 mm 0 W/m2
05:12 -10.3 °C -11.3 °C 34452.6 hPa NE 7.7 km/h 7.7 km/h 89 % 0 mm 0 W/m2
05:17 -10.3 °C -11.3 °C 34452.6 hPa NE 7.7 km/h 7.7 km/h 89 % 0 mm 0 W/m2
05:22 -10.3 °C -11.3 °C 34462.7 hPa NNE 10.3 km/h 18.2 km/h 89 % 0 mm 0 W/m2
05:27 -10.3 °C -11.3 °C 34452.6 hPa NNE 10.3 km/h 18.2 km/h 89 % 0 mm 0 W/m2
05:32 -10.3 °C -11.3 °C 34452.6 hPa NNE 10.3 km/h 23.3 km/h 88 % 0 mm 0 W/m2
05:37 -10.3 °C -11.3 °C 34452.6 hPa NNE 10.3 km/h 23.3 km/h 88 % 0 mm 0 W/m2
05:42 -10.3 °C -11.3 °C 34452.6 hPa NNE 12.9 km/h 31.1 km/h 88 % 0 mm 0 W/m2
05:47 -10.2 °C -11.3 °C 34462.7 hPa NNE 12.9 km/h 25.9 km/h 88 % 0 mm 0 W/m2
05:52 -10.2 °C -11.3 °C 34452.6 hPa NNE 12.9 km/h 31.1 km/h 88 % 0 mm 0 W/m2
05:57 -10.2 °C -11.3 °C 34462.7 hPa NNE 12.9 km/h 25.9 km/h 88 % 0 mm 0 W/m2
06:02 -10.2 °C -11.3 °C 34462.7 hPa NE 12.9 km/h 25.9 km/h 88 % 0 mm 0 W/m2
06:07 -10.3 °C -11.3 °C 34462.7 hPa NNE 12.9 km/h 28.5 km/h 88 % 0 mm 0 W/m2
06:12 -10.3 °C -11.3 °C 34462.7 hPa NNE 15.6 km/h 33.6 km/h 88 % 0 mm 0 W/m2
06:17 -10.3 °C -11.3 °C 34462.7 hPa NNE 15.6 km/h 33.6 km/h 88 % 0 mm 0 W/m2
06:22 -10.3 °C -11.3 °C 34462.7 hPa NNE 15.6 km/h 33.6 km/h 88 % 0 mm 0 W/m2
06:27 -10.3 °C -11.3 °C 34462.7 hPa NNE 15.6 km/h 31.1 km/h 88 % 0 mm 0 W/m2
06:32 -10.3 °C -11.3 °C 34462.7 hPa NNE 12.9 km/h 25.9 km/h 88 % 0 mm 0 W/m2
06:37 -10.3 °C -11.3 °C 34462.7 hPa NNE 12.9 km/h 25.9 km/h 88 % 0 mm 0 W/m2
06:42 -10.3 °C -11.4 °C 34462.7 hPa NE 12.9 km/h 33.6 km/h 88 % 0 mm 0 W/m2
06:47 -10.3 °C -11.4 °C 34462.7 hPa NNE 12.9 km/h 36.2 km/h 88 % 0 mm 0 W/m2
06:53 -10.3 °C -11.4 °C 34452.6 hPa North 26.9 km/h 26.9 km/h 88 % 0 mm 0.0 W/m2
06:58 -10.3 °C -11.5 °C 34462.7 hPa NE 12.9 km/h 31.1 km/h 87 % 0 mm 0 W/m2
06:59 -10.3 °C -11.4 °C 34452.6 hPa North 26.9 km/h 26.9 km/h 88 % 0 mm 0.0 W/m2
07:03 -10.3 °C -11.5 °C 34462.7 hPa NE 12.9 km/h 33.6 km/h 87 % 0 mm 0 W/m2
07:08 -10.3 °C -11.4 °C 34452.6 hPa North 26.9 km/h 26.9 km/h 88 % 0 mm 0.0 W/m2
07:13 -10.3 °C -11.5 °C 34462.7 hPa NNE 12.9 km/h 25.9 km/h 87 % 0 mm 7 W/m2
07:18 -10.3 °C -11.5 °C 34476.3 hPa NE 10.3 km/h 20.8 km/h 87 % 0 mm 11 W/m2
07:23 -10.3 °C -11.5 °C 34476.3 hPa NNE 7.7 km/h 18.2 km/h 87 % 0 mm 12 W/m2
07:28 -10.3 °C -11.5 °C 34476.3 hPa NE 7.7 km/h 20.8 km/h 87 % 0 mm 19 W/m2
07:33 -10.3 °C -11.5 °C 34476.3 hPa NNE 7.7 km/h 20.8 km/h 87 % 0 mm 25 W/m2
07:38 -10.3 °C -11.4 °C 34476.3 hPa ENE 7.7 km/h 12.9 km/h 87 % 0 mm 33 W/m2
07:43 -10.2 °C -11.4 °C 34476.3 hPa NE 7.7 km/h 15.6 km/h 87 % 0 mm 40 W/m2
07:48 -10.2 °C -11.4 °C 34476.3 hPa NE 5.1 km/h 10.3 km/h 87 % 0 mm 44 W/m2
07:53 -10.2 °C -11.4 °C 34476.3 hPa NNE 5.1 km/h 25.9 km/h 87 % 0 mm 53 W/m2
07:58 -10.2 °C -11.3 °C 34476.3 hPa NNE 7.7 km/h 18.2 km/h 87 % 0 mm 56 W/m2
08:03 -10.1 °C -11.3 °C 34476.3 hPa NNE 7.7 km/h 18.2 km/h 87 % 0 mm 60 W/m2
08:08 -10.1 °C -11.2 °C 34476.3 hPa NNE 5.1 km/h 18.2 km/h 87 % 0 mm 51 W/m2
08:13 -10.1 °C -11.2 °C 34476.3 hPa NNE 5.1 km/h 15.6 km/h 87 % 0 mm 54 W/m2
08:18 -10.1 °C -11.2 °C 34476.3 hPa NNE 5.1 km/h 18.2 km/h 87 % 0 mm 65 W/m2
08:23 -10.1 °C -11.2 °C 34476.3 hPa NNE 7.7 km/h 25.9 km/h 87 % 0 mm 74 W/m2
08:28 -10 °C -11.2 °C 34476.3 hPa NE 7.7 km/h 20.8 km/h 87 % 0 mm 72 W/m2
08:33 -9.9 °C -11.2 °C 34476.3 hPa NE 7.7 km/h 20.8 km/h 87 % 0 mm 76 W/m2
08:38 -9.9 °C -11.2 °C 34476.3 hPa NNE 7.7 km/h 25.9 km/h 87 % 0 mm 70 W/m2
08:43 -9.9 °C -11.2 °C 34476.3 hPa NE 10.3 km/h 28.5 km/h 87 % 0 mm 70 W/m2
08:48 -9.9 °C -11.2 °C 34476.3 hPa NE 10.3 km/h 36.2 km/h 87 % 0 mm 134 W/m2
08:53 -9.9 °C -11.1 °C 34476.3 hPa NNE 12.9 km/h 31.1 km/h 87 % 0 mm 257 W/m2
08:58 -9.8 °C -11.1 °C 34476.3 hPa NNE 18.2 km/h 38.8 km/h 86 % 0 mm 272 W/m2
09:03 -9.7 °C -11.1 °C 34476.3 hPa NNE 18.2 km/h 31.1 km/h 85 % 0 mm 160 W/m2
09:08 -9.6 °C -11.1 °C 34476.3 hPa NNE 18.2 km/h 51.8 km/h 84 % 0 mm 281 W/m2
09:13 -9.6 °C -11.1 °C 34476.3 hPa NNE 18.2 km/h 28.5 km/h 84 % 0 mm 283 W/m2
09:18 -9.5 °C -11 °C 34476.3 hPa NE 15.6 km/h 33.6 km/h 84 % 0 mm 276 W/m2
09:23 -9.5 °C -11.1 °C 34476.3 hPa NE 15.6 km/h 33.6 km/h 83 % 0 mm 309 W/m2
09:28 -9.4 °C -11.1 °C 34476.3 hPa NE 12.9 km/h 28.5 km/h 83 % 0 mm 325 W/m2
09:33 -9.4 °C -11 °C 34476.3 hPa NNE 12.9 km/h 28.5 km/h 83 % 0 mm 339 W/m2
09:38 -9.3 °C -10.9 °C 34476.3 hPa NNE 10.3 km/h 23.3 km/h 83 % 0 mm 353 W/m2
09:43 -9.2 °C -10.9 °C 34476.3 hPa NNE 10.3 km/h 20.8 km/h 82 % 0 mm 371 W/m2
09:48 -9.2 °C -10.9 °C 34486.4 hPa NE 10.3 km/h 23.3 km/h 82 % 0 mm 376 W/m2
09:53 -9.1 °C -10.9 °C 34486.4 hPa East 10.3 km/h 25.9 km/h 81 % 0 mm 403 W/m2
09:59 -9.1 °C -10.9 °C 34486.4 hPa East 10.3 km/h 15.6 km/h 81 % 0 mm 424 W/m2
10:04 -8.9 °C -10.7 °C 34486.4 hPa East 7.7 km/h 20.8 km/h 81 % 0 mm 434 W/m2
10:09 -8.8 °C -10.7 °C 34486.4 hPa NE 7.7 km/h 15.6 km/h 80 % 0 mm 448 W/m2
10:14 -8.8 °C -10.8 °C 34486.4 hPa ENE 5.1 km/h 10.3 km/h 79 % 0 mm 457 W/m2
10:19 -8.6 °C -10.7 °C 34486.4 hPa NNE 5.1 km/h 18.2 km/h 79 % 0 mm 473 W/m2
10:24 -8.7 °C -10.9 °C 34486.4 hPa North 5.1 km/h 15.6 km/h 78 % 0 mm 485 W/m2
10:29 -8.8 °C -10.9 °C 34486.4 hPa North 7.7 km/h 18.2 km/h 78 % 0 mm 501 W/m2
10:44 -8.8 °C -10.9 °C 34476.3 hPa NNE 11.9 km/h 11.9 km/h 78 % 0 mm 538.0 W/m2
10:49 -8.7 °C -10.9 °C 34476.3 hPa North 11.9 km/h 11.9 km/h 78 % 0 mm 552.0 W/m2
10:54 -8.7 °C -10.8 °C 34486.4 hPa NW 7.7 km/h 10.3 km/h 78 % 0 mm 566 W/m2
10:59 -8.6 °C -10.7 °C 34476.3 hPa NNW 15.6 km/h 15.6 km/h 78 % 0 mm 580.0 W/m2
11:04 -8.5 °C -10.7 °C 34486.4 hPa NNE 7.7 km/h 20.8 km/h 78 % 0 mm 592 W/m2
11:09 -8.5 °C -10.7 °C 34462.7 hPa NNW 17.9 km/h 17.9 km/h 77 % 0 mm 601.0 W/m2
11:14 -8.4 °C -10.6 °C 34462.7 hPa North 12.9 km/h 12.9 km/h 77 % 0 mm 613.0 W/m2
11:29 -8.4 °C -10.5 °C 34462.7 hPa North 26.9 km/h 26.9 km/h 78 % 0 mm 650.0 W/m2
11:34 -8.4 °C -10.5 °C 34476.3 hPa North 12.9 km/h 28.5 km/h 78 % 0 mm 666 W/m2
11:39 -8.4 °C -10.6 °C 34462.7 hPa South 26.9 km/h 26.9 km/h 77 % 0 mm 673.0 W/m2
11:44 -8.4 °C -10.7 °C 34452.6 hPa North 23.3 km/h 23.3 km/h 77 % 0 mm 684.0 W/m2
11:49 -8.3 °C -10.6 °C 34452.6 hPa NNE 28.5 km/h 28.5 km/h 77 % 0 mm 700.0 W/m2
11:54 -8.3 °C -10.7 °C 34452.6 hPa NNE 32.8 km/h 32.8 km/h 76 % 0 mm 708.0 W/m2
11:59 -8.3 °C -10.7 °C 34452.6 hPa NW 29.8 km/h 29.8 km/h 76 % 0 mm 708.0 W/m2
12:04 -8.2 °C -10.7 °C 34452.6 hPa NNW 33.6 km/h 33.6 km/h 75 % 0 mm 693.0 W/m2
12:09 -8.2 °C -10.7 °C 34452.6 hPa NE 32.8 km/h 32.8 km/h 75 % 0 mm 671.0 W/m2
12:14 -8.2 °C -10.7 °C 34452.6 hPa NNW 35.7 km/h 35.7 km/h 75 % 0 mm 638.0 W/m2
12:19 -8.2 °C -10.7 °C 34452.6 hPa NNW 36.2 km/h 36.2 km/h 75 % 0 mm 621.0 W/m2
12:24 -8.2 °C -10.7 °C 34452.6 hPa NNW 29.8 km/h 29.8 km/h 75 % 0 mm 606.0 W/m2
12:29 -8.2 °C -10.6 °C 34452.6 hPa NNW 44.1 km/h 44.1 km/h 76 % 0 mm 617.0 W/m2
12:34 -8.9 °C -10.7 °C 34462.7 hPa NW 23.3 km/h 46.7 km/h 81 % 0 mm 656 W/m2
12:39 -9.2 °C -10.7 °C 34452.6 hPa NW 41.7 km/h 41.7 km/h 84 % 0 mm 691.0 W/m2
12:44 -9.3 °C -10.7 °C 34452.6 hPa WNW 41.7 km/h 41.7 km/h 85 % 0 mm 737.0 W/m2
12:49 -9.3 °C -10.7 °C 34452.6 hPa WNW 44.1 km/h 44.1 km/h 86 % 0 mm 795.0 W/m2
12:54 -9.3 °C -10.6 °C 34452.6 hPa North 41.7 km/h 41.7 km/h 87 % 0 mm 805.0 W/m2
12:59 -9.4 °C -10.6 °C 34452.6 hPa NNW 51.8 km/h 51.8 km/h 87 % 0 mm 817.0 W/m2
13:04 -9.4 °C -10.6 °C 34462.7 hPa NNW 28.5 km/h 41.4 km/h 87 % 0 mm 824 W/m2
13:09 -9.4 °C -10.5 °C 34462.7 hPa NW 28.5 km/h 44.1 km/h 88 % 0 mm 823 W/m2
13:14 -9.3 °C -10.4 °C 34452.6 hPa NW 41.7 km/h 41.7 km/h 88 % 0 mm 826.0 W/m2
13:19 -9.4 °C -10.5 °C 34442.4 hPa NNW 49.2 km/h 49.2 km/h 88 % 0 mm 833.0 W/m2
13:24 -9.4 °C -10.6 °C 34442.4 hPa North 50.7 km/h 50.7 km/h 88 % 0 mm 838.0 W/m2
13:29 -9.4 °C -10.6 °C 34442.4 hPa NW 59.5 km/h 59.5 km/h 88 % 0 mm 846.0 W/m2
13:34 -9.5 °C -10.5 °C 34452.6 hPa NNW 33.6 km/h 54.4 km/h 89 % 0 mm 851 W/m2
13:39 -9.5 °C -10.4 °C 34428.8 hPa WNW 50.7 km/h 50.7 km/h 89 % 0 mm 853.0 W/m2
13:44 -9.5 °C -10.5 °C 34442.4 hPa NW 33.6 km/h 59.5 km/h 89 % 0 mm 861 W/m2
13:49 -9.5 °C -10.4 °C 34428.8 hPa NNW 64.7 km/h 64.7 km/h 89 % 0 mm 861.0 W/m2
13:54 -9.4 °C -10.5 °C 34442.4 hPa NW 33.6 km/h 59.5 km/h 88 % 0 mm 865 W/m2
13:59 -9.4 °C -10.5 °C 34428.8 hPa West 51.8 km/h 51.8 km/h 88 % 0 mm 865.0 W/m2
14:04 -9.4 °C -10.5 °C 34428.8 hPa WNW 47.6 km/h 47.6 km/h 88 % 0 mm 861.0 W/m2
14:09 -9.4 °C -10.5 °C 34442.4 hPa NW 31.1 km/h 51.8 km/h 88 % 0 mm 865 W/m2
14:14 -9.4 °C -10.5 °C 34442.4 hPa NW 31.1 km/h 51.8 km/h 88 % 0 mm 870 W/m2
14:19 -9.3 °C -10.4 °C 34428.8 hPa NW 57 km/h 57 km/h 88 % 0 mm 865.0 W/m2
14:24 -9.4 °C -10.5 °C 34428.8 hPa NNW 59.5 km/h 59.5 km/h 88 % 0 mm 807.0 W/m2
14:29 -9.4 °C -10.6 °C 34442.4 hPa NW 31.1 km/h 69.8 km/h 88 % 0 mm 754 W/m2
14:34 -9.6 °C -10.6 °C 34418.7 hPa WNW 56.6 km/h 56.6 km/h 88 % 0 mm 731.0 W/m2
14:39 -9.6 °C -10.6 °C 34418.7 hPa NW 47.6 km/h 47.6 km/h 89 % 0 mm 726.0 W/m2
14:44 -9.6 °C -10.6 °C 34418.7 hPa WSW 59.5 km/h 59.5 km/h 89 % 0 mm 761.0 W/m2
14:49 -9.6 °C -10.6 °C 34428.8 hPa NW 33.6 km/h 62.1 km/h 89 % 0 mm 823 W/m2
14:54 -9.6 °C -10.6 °C 34405.1 hPa NNE 57 km/h 57 km/h 89 % 0 mm 861.0 W/m2
14:59 -9.6 °C -10.6 °C 34428.8 hPa NNW 33.6 km/h 62.1 km/h 89 % 0 mm 867 W/m2
15:04 -9.6 °C -10.6 °C 34428.8 hPa NW 33.6 km/h 64.7 km/h 89 % 0 mm 860 W/m2
15:09 -9.7 °C -10.7 °C 34418.7 hPa NNW 62.6 km/h 62.6 km/h 89 % 0 mm 860.0 W/m2
15:14 -9.8 °C -10.7 °C 34405.1 hPa NNW 59.5 km/h 59.5 km/h 90 % 0 mm 856.0 W/m2
15:19 -9.8 °C -10.7 °C 34428.8 hPa NW 38.8 km/h 64.7 km/h 90 % 0 mm 858 W/m2
15:24 -9.7 °C -10.6 °C 34418.7 hPa NW 38.8 km/h 62.1 km/h 90 % 0 mm 854 W/m2
15:29 -9.7 °C -10.6 °C 34405.1 hPa NNW 67.3 km/h 67.3 km/h 90 % 0 mm 849.0 W/m2
15:34 -9.7 °C -10.6 °C 34405.1 hPa North 59.5 km/h 59.5 km/h 90 % 0 mm 846.0 W/m2
15:39 -9.7 °C -10.6 °C 34405.1 hPa NNW 68.6 km/h 68.6 km/h 90 % 0 mm 846.0 W/m2
15:44 -9.7 °C -10.7 °C 34405.1 hPa WNW 68.6 km/h 68.6 km/h 89 % 0 mm 842.0 W/m2
15:49 -9.7 °C -10.6 °C 34405.1 hPa NNW 59.5 km/h 59.5 km/h 90 % 0 mm 831.0 W/m2
15:54 -9.6 °C -10.6 °C 34405.1 hPa NNE 67.3 km/h 67.3 km/h 89 % 0 mm 823.0 W/m2
15:59 -9.6 °C -10.6 °C 34405.1 hPa NW 53.6 km/h 53.6 km/h 89 % 0 mm 812.0 W/m2
16:04 -9.6 °C -10.6 °C 34405.1 hPa NNW 46.7 km/h 46.7 km/h 89 % 0 mm 809.0 W/m2
16:09 -9.6 °C -10.5 °C 34418.7 hPa NNW 41.4 km/h 41.4 km/h 89 % 0 mm 798.0 W/m2
16:14 -9.6 °C -10.5 °C 34405.1 hPa West 64.7 km/h 64.7 km/h 89 % 0 mm 802.0 W/m2
16:19 -9.6 °C -10.6 °C 34405.1 hPa WNW 62.1 km/h 62.1 km/h 89 % 0 mm 791.0 W/m2
16:24 -9.7 °C -10.7 °C 34405.1 hPa North 67.3 km/h 67.3 km/h 89 % 0 mm 786.0 W/m2
16:29 -9.8 °C -10.7 °C 34405.1 hPa West 62.6 km/h 62.6 km/h 90 % 0 mm 770.0 W/m2
16:34 -9.8 °C -10.7 °C 34405.1 hPa NNE 44.7 km/h 44.7 km/h 90 % 0 mm 759.0 W/m2
16:39 -9.7 °C -10.6 °C 34428.8 hPa NW 28.5 km/h 41.4 km/h 90 % 0 mm 747 W/m2
16:44 -9.7 °C -10.6 °C 34428.8 hPa NW 23.3 km/h 44.1 km/h 90 % 0 mm 744 W/m2
16:49 -9.6 °C -10.5 °C 34405.1 hPa NE 50.7 km/h 50.7 km/h 90 % 0 mm 737.0 W/m2
16:54 -9.6 °C -10.6 °C 34418.7 hPa NNW 20.8 km/h 59.5 km/h 89 % 0 mm 724 W/m2
16:59 -9.6 °C -10.6 °C 34418.7 hPa NW 25.9 km/h 59.5 km/h 89 % 0 mm 721 W/m2
17:04 -9.7 °C -10.7 °C 34418.7 hPa NW 33.6 km/h 64.7 km/h 89 % 0 mm 714 W/m2
17:09 -9.7 °C -10.6 °C 34395 hPa NNW 59.5 km/h 59.5 km/h 90 % 0 mm 701.0 W/m2
17:14 -9.8 °C -10.7 °C 34418.7 hPa NNW 38.8 km/h 72.6 km/h 90 % 0 mm 687 W/m2
17:19 -9.8 °C -10.6 °C 34405.1 hPa East 62.6 km/h 62.6 km/h 91 % 0 mm 682.0 W/m2
17:24 -9.8 °C -10.6 °C 34405.1 hPa North 56.6 km/h 56.6 km/h 91 % 0 mm 673.0 W/m2
17:29 -9.7 °C -10.4 °C 34418.7 hPa NW 23.3 km/h 44.1 km/h 91 % 0 mm 654 W/m2
17:34 -9.7 °C -10.4 °C 34418.7 hPa NW 20.8 km/h 54.4 km/h 91 % 0 mm 643 W/m2
17:39 -9.7 °C -10.5 °C 34405.1 hPa NNW 65.5 km/h 65.5 km/h 91 % 0 mm 635.0 W/m2
17:44 -9.7 °C -10.5 °C 34395 hPa WNW 65.5 km/h 65.5 km/h 91 % 0 mm 626.0 W/m2
17:49 -9.7 °C -10.4 °C 34418.7 hPa NW 28.5 km/h 46.7 km/h 91 % 0 mm 612 W/m2
17:54 -9.6 °C -10.4 °C 34418.7 hPa NNW 20.8 km/h 36.2 km/h 91 % 0 mm 601 W/m2
17:59 -9.5 °C -10.4 °C 34418.7 hPa NW 18.2 km/h 23.3 km/h 90 % 0 mm 580 W/m2
18:04 -9.3 °C -10.2 °C 34405.1 hPa NNW 38.8 km/h 38.8 km/h 91 % 0 mm 577.0 W/m2
18:09 -9.4 °C -10.4 °C 34405.1 hPa WSW 26.9 km/h 26.9 km/h 89 % 0 mm 566.0 W/m2
18:14 -9.3 °C -10.3 °C 34395 hPa WNW 41.7 km/h 41.7 km/h 89 % 0 mm 548.0 W/m2
18:19 -9.3 °C -10.3 °C 34395 hPa NNW 44.7 km/h 44.7 km/h 89 % 0 mm 540.0 W/m2
18:24 -9.3 °C -10.4 °C 34395 hPa NE 41.7 km/h 41.7 km/h 88 % 0 mm 524.0 W/m2
18:29 -9.3 °C -10.4 °C 34405.1 hPa NNW 20.8 km/h 54.4 km/h 88 % 0 mm 510 W/m2
18:34 -9.4 °C -10.5 °C 34405.1 hPa NNW 25.9 km/h 51.8 km/h 88 % 0 mm 499 W/m2
18:39 -9.4 °C -10.5 °C 34405.1 hPa NNW 28.5 km/h 57 km/h 88 % 0 mm 483 W/m2
18:54 -9.3 °C -10.4 °C 34405.1 hPa NW 28.5 km/h 51.8 km/h 87 % 0 mm 441 W/m2
18:59 -9.3 °C -10.5 °C 34405.1 hPa NW 28.5 km/h 59.5 km/h 87 % 0 mm 427 W/m2
19:04 -9.3 °C -10.4 °C 34405.1 hPa NW 25.9 km/h 54.4 km/h 87 % 0 mm 399 W/m2
19:09 -9.3 °C -10.4 °C 34395 hPa NNW 25.9 km/h 62.1 km/h 87 % 0 mm 369 W/m2
19:14 -9.3 °C -10.6 °C 34395 hPa NW 25.9 km/h 64.7 km/h 86 % 0 mm 387 W/m2
19:19 -9.3 °C -10.5 °C 34395 hPa NW 31.1 km/h 54.4 km/h 87 % 0 mm 371 W/m2
19:24 -9.3 °C -10.4 °C 34405.1 hPa NW 33.6 km/h 51.8 km/h 87 % 0 mm 355 W/m2
19:29 -9.2 °C -10.5 °C 34405.1 hPa NNW 31.1 km/h 67.3 km/h 86 % 0 mm 341 W/m2
19:34 -9.1 °C -10.4 °C 34405.1 hPa NW 33.6 km/h 57 km/h 86 % 0 mm 329 W/m2
19:39 -9.1 °C -10.5 °C 34395 hPa NW 31.1 km/h 49.2 km/h 85 % 0 mm 315 W/m2
19:44 -9.1 °C -10.4 °C 34395 hPa NNW 31.1 km/h 59.5 km/h 85 % 0 mm 301 W/m2
19:50 -9.1 °C -10.4 °C 34395 hPa NW 31.1 km/h 46.7 km/h 85 % 0 mm 283 W/m2
19:55 -9.1 °C -10.4 °C 34405.1 hPa NW 28.5 km/h 49.2 km/h 85 % 0 mm 272 W/m2
20:00 -9.1 °C -10.5 °C 34405.1 hPa NNW 25.9 km/h 31.1 km/h 85 % 0 mm 257 W/m2
20:05 -9.1 °C -10.3 °C 34405.1 hPa NNW 15.6 km/h 28.5 km/h 86 % 0 mm 243 W/m2
20:10 -9 °C -10.3 °C 34395 hPa North 17.9 km/h 17.9 km/h 86 % 0 mm 227.0 W/m2
20:15 -8.9 °C -10.3 °C 34395 hPa NNW 23.3 km/h 23.3 km/h 85 % 0 mm 213.0 W/m2
20:20 -9.1 °C -10.5 °C 34395 hPa NW 38.8 km/h 38.8 km/h 85 % 0 mm 193.0 W/m2
20:25 -9.1 °C -10.4 °C 34405.1 hPa North 18.2 km/h 20.8 km/h 86 % 0 mm 176 W/m2
20:30 -9 °C -10.3 °C 34395 hPa NNW 29.8 km/h 29.8 km/h 86 % 0 mm 162.0 W/m2
20:35 -8.8 °C -10.2 °C 34405.1 hPa North 10.3 km/h 20.8 km/h 85 % 0 mm 135 W/m2
20:40 -8.8 °C -10.3 °C 34405.1 hPa North 7.7 km/h 36.2 km/h 84 % 0 mm 118 W/m2
20:45 -8.9 °C -10.4 °C 34405.1 hPa North 12.9 km/h 46.7 km/h 84 % 0 mm 102 W/m2
20:50 -8.7 °C -10.3 °C 34405.1 hPa North 18.2 km/h 41.4 km/h 83 % 0 mm 95 W/m2
20:55 -8.7 °C -10.4 °C 34405.1 hPa NNE 18.2 km/h 36.2 km/h 82 % 0 mm 74 W/m2
21:00 -8.7 °C -10.4 °C 34395 hPa NNE 35.7 km/h 35.7 km/h 82 % 0 mm 60.0 W/m2
21:05 -8.7 °C -10.5 °C 34405.1 hPa North 15.6 km/h 31.1 km/h 81 % 0 mm 40 W/m2
21:10 -8.7 °C -10.5 °C 34405.1 hPa North 15.6 km/h 25.9 km/h 81 % 0 mm 46 W/m2
21:15 -8.7 °C -10.5 °C 34418.7 hPa North 15.6 km/h 25.9 km/h 81 % 0 mm 37 W/m2
21:20 -8.7 °C -10.5 °C 34418.7 hPa NNW 12.9 km/h 28.5 km/h 81 % 0 mm 33 W/m2
21:25 -9 °C -10.7 °C 34418.7 hPa North 15.6 km/h 31.1 km/h 82 % 0 mm 26 W/m2
21:30 -9.1 °C -10.7 °C 34418.7 hPa North 12.9 km/h 28.5 km/h 83 % 0 mm 21 W/m2
21:35 -9.2 °C -10.7 °C 34418.7 hPa NNE 12.9 km/h 33.6 km/h 84 % 0 mm 18 W/m2
21:40 -9.3 °C -10.7 °C 34405.1 hPa NNE 29.8 km/h 29.8 km/h 85 % 0 mm 11.0 W/m2
21:45 -9.4 °C -10.8 °C 34405.1 hPa NW 26.9 km/h 26.9 km/h 85 % 0 mm 9.0 W/m2
21:50 -9.4 °C -10.7 °C 34405.1 hPa NW 26.9 km/h 26.9 km/h 86 % 0 mm 5.0 W/m2
21:55 -9.5 °C -10.8 °C 34418.7 hPa NNW 10.3 km/h 28.5 km/h 86 % 0 mm 0 W/m2
21:58 -9.6 °C -10.8 °C 34418.7 hPa North 12.9 km/h 38.8 km/h 86 % 0 mm 0 W/m2
22:03 -9.6 °C -10.7 °C 34428.8 hPa NNW 15.6 km/h 33.6 km/h 87 % 0 mm 0 W/m2
22:08 -9.5 °C -10.7 °C 34428.8 hPa NNW 15.6 km/h 38.8 km/h 87 % 0 mm 0 W/m2
22:13 -9.6 °C -10.8 °C 34428.8 hPa NNW 18.2 km/h 44.1 km/h 86 % 0 mm 0 W/m2
22:18 -9.6 °C -10.7 °C 34428.8 hPa NNW 23.3 km/h 38.8 km/h 87 % 0 mm 0 W/m2
22:23 -9.6 °C -10.8 °C 34428.8 hPa NNW 23.3 km/h 36.2 km/h 87 % 0 mm 0 W/m2
22:28 -9.7 °C -10.9 °C 34442.4 hPa NNW 20.8 km/h 38.8 km/h 87 % 0 mm 0 W/m2
22:33 -9.7 °C -10.9 °C 34442.4 hPa NW 20.8 km/h 36.2 km/h 87 % 0 mm 0 W/m2
22:38 -9.7 °C -10.8 °C 34442.4 hPa NNW 20.8 km/h 38.8 km/h 88 % 0 mm 0 W/m2
22:43 -9.7 °C -10.8 °C 34442.4 hPa NNW 15.6 km/h 23.3 km/h 88 % 0 mm 0 W/m2
22:48 -9.7 °C -10.8 °C 34442.4 hPa North 12.9 km/h 28.5 km/h 88 % 0 mm 0 W/m2
22:53 -9.7 °C -10.8 °C 34442.4 hPa North 10.3 km/h 18.2 km/h 88 % 0 mm 0 W/m2
22:59 -9.7 °C -10.8 °C 34452.6 hPa North 7.7 km/h 28.5 km/h 88 % 0 mm 0 W/m2
23:04 -9.7 °C -10.8 °C 34452.6 hPa North 7.7 km/h 25.9 km/h 88 % 0 mm 0 W/m2
23:09 -9.6 °C -10.7 °C 34452.6 hPa North 10.3 km/h 18.2 km/h 88 % 0 mm 0 W/m2
23:14 -9.6 °C -10.7 °C 34452.6 hPa North 7.7 km/h 28.5 km/h 88 % 0 mm 0 W/m2
23:19 -9.6 °C -10.8 °C 34452.6 hPa North 7.7 km/h 15.6 km/h 87 % 0 mm 0 W/m2
23:24 -9.6 °C -10.8 °C 34452.6 hPa North 7.7 km/h 23.3 km/h 87 % 0 mm 0 W/m2
23:29 -9.6 °C -10.8 °C 34452.6 hPa NNE 7.7 km/h 33.6 km/h 87 % 0 mm 0 W/m2
23:34 -9.6 °C -10.8 °C 34452.6 hPa NNE 7.7 km/h 23.3 km/h 87 % 0 mm 0 W/m2
23:39 -9.6 °C -10.7 °C 34452.6 hPa North 10.3 km/h 12.9 km/h 87 % 0 mm 0 W/m2
23:44 -9.6 °C -10.8 °C 34452.6 hPa North 10.3 km/h 18.2 km/h 87 % 0 mm 0 W/m2
23:49 -9.6 °C -10.8 °C 34442.4 hPa NE 26.9 km/h 26.9 km/h 87 % 0 mm 0.0 W/m2
23:54 -9.7 °C -10.9 °C 34442.4 hPa North 20.9 km/h 20.9 km/h 87 % 0 mm 0.0 W/m2
23:59 -9.7 °C -10.9 °C 34452.6 hPa NNE 10.3 km/h 23.3 km/h 87 % 0 mm 0 W/m2
Meteocoruña
Agradecimientos a Weather Underground - 3 mb